sensor_id;sensor_type;location;lat;lon;timestamp;P1;durP1;ratioP1;P2;durP2;ratioP2
40248;SDS011;25969;49.970;11.062;2022-10-31T05:06:16;200.55;;;13.45;;
40248;SDS011;25969;49.970;11.062;2022-10-31T05:16:17;170.93;;;15.63;;
40248;SDS011;25969;49.970;11.062;2022-10-31T05:26:44;387.80;;;19.48;;
40248;SDS011;25969;49.970;11.062;2022-10-31T05:36:46;418.88;;;18.38;;
40248;SDS011;25969;49.970;11.062;2022-10-31T05:46:51;166.05;;;8.48;;
40248;SDS011;25969;49.970;11.062;2022-10-31T05:57:11;9.20;;;5.05;;
40248;SDS011;25969;49.970;11.062;2022-10-31T06:07:11;19.63;;;8.75;;
40248;SDS011;25969;49.970;11.062;2022-10-31T06:17:12;14.57;;;7.90;;
40248;SDS011;25969;49.970;11.062;2022-10-31T06:27:17;19.20;;;8.02;;
40248;SDS011;25969;49.970;11.062;2022-10-31T06:37:18;19.20;;;8.73;;
40248;SDS011;25969;49.970;11.062;2022-10-31T06:47:22;18.60;;;7.72;;
40248;SDS011;25969;49.970;11.062;2022-10-31T06:57:37;16.60;;;8.40;;
40248;SDS011;25969;49.970;11.062;2022-10-31T07:07:38;16.02;;;6.15;;
40248;SDS011;25969;49.970;11.062;2022-10-31T07:17:41;14.60;;;6.65;;
40248;SDS011;25969;49.970;11.062;2022-10-31T07:27:42;9.75;;;5.90;;
40248;SDS011;25969;49.970;11.062;2022-10-31T07:37:46;17.23;;;8.52;;
40248;SDS011;25969;49.970;11.062;2022-10-31T07:47:49;7.18;;;4.00;;
40248;SDS011;25969;49.970;11.062;2022-10-31T07:58:11;7.80;;;4.57;;
40248;SDS011;25969;49.970;11.062;2022-10-31T08:08:15;9.63;;;4.35;;
40248;SDS011;25969;49.970;11.062;2022-10-31T08:18:17;6.57;;;4.22;;
40248;SDS011;25969;49.970;11.062;2022-10-31T08:28:18;5.32;;;3.20;;
40248;SDS011;25969;49.970;11.062;2022-10-31T08:38:23;4.10;;;3.25;;
40248;SDS011;25969;49.970;11.062;2022-10-31T08:48:24;8.70;;;3.65;;
40248;SDS011;25969;49.970;11.062;2022-10-31T08:58:26;5.53;;;3.80;;
40248;SDS011;25969;49.970;11.062;2022-10-31T09:08:32;7.55;;;3.30;;
40248;SDS011;25969;49.970;11.062;2022-10-31T09:18:35;4.90;;;3.22;;
40248;SDS011;25969;49.970;11.062;2022-10-31T09:28:35;7.95;;;3.17;;
40248;SDS011;25969;49.970;11.062;2022-10-31T09:38:43;9.35;;;3.83;;
40248;SDS011;25969;49.970;11.062;2022-10-31T09:58:58;4.55;;;3.22;;
40248;SDS011;25969;49.970;11.062;2022-10-31T10:09:01;4.15;;;3.00;;
40248;SDS011;25969;49.970;11.062;2022-10-31T10:29:52;6.28;;;3.60;;
40248;SDS011;25969;49.970;11.062;2022-10-31T10:40:13;4.95;;;3.63;;
40248;SDS011;25969;49.970;11.062;2022-10-31T10:50:18;4.90;;;3.60;;
40248;SDS011;25969;49.970;11.062;2022-10-31T11:20:42;5.80;;;3.70;;
40248;SDS011;25969;49.970;11.062;2022-10-31T11:30:58;5.68;;;3.80;;
40248;SDS011;25969;49.970;11.062;2022-10-31T11:51:49;8.13;;;4.63;;
40248;SDS011;25969;49.970;11.062;2022-10-31T12:01:47;5.95;;;3.83;;
40248;SDS011;25969;49.970;11.062;2022-10-31T12:11:58;9.60;;;4.63;;
40248;SDS011;25969;49.970;11.062;2022-10-31T12:53:04;6.85;;;4.95;;
40248;SDS011;25969;49.970;11.062;2022-10-31T13:03:30;13.90;;;5.20;;
40248;SDS011;25969;49.970;11.062;2022-10-31T13:13:47;9.73;;;4.80;;
40248;SDS011;25969;49.970;11.062;2022-10-31T13:23:54;7.15;;;4.88;;
40248;SDS011;25969;49.970;11.062;2022-10-31T13:34:01;7.35;;;5.50;;
40248;SDS011;25969;49.970;11.062;2022-10-31T13:44:20;9.07;;;5.55;;
40248;SDS011;25969;49.970;11.062;2022-10-31T13:54:32;11.70;;;5.70;;
40248;SDS011;25969;49.970;11.062;2022-10-31T14:04:38;8.20;;;5.63;;
40248;SDS011;25969;49.970;11.062;2022-10-31T14:14:46;9.23;;;5.77;;
40248;SDS011;25969;49.970;11.062;2022-10-31T14:24:50;9.70;;;4.07;;
40248;SDS011;25969;49.970;11.062;2022-10-31T14:34:55;10.00;;;2.70;;
40248;SDS011;25969;49.970;11.062;2022-10-31T14:55:10;11.70;;;3.20;;
40248;SDS011;25969;49.970;11.062;2022-10-31T15:05:13;9.48;;;3.00;;
40248;SDS011;25969;49.970;11.062;2022-10-31T15:15:32;10.15;;;3.15;;
40248;SDS011;25969;49.970;11.062;2022-10-31T15:25:35;12.50;;;3.13;;
40248;SDS011;25969;49.970;11.062;2022-10-31T15:35:36;7.20;;;2.77;;
40248;SDS011;25969;49.970;11.062;2022-10-31T15:45:37;6.27;;;2.87;;
40248;SDS011;25969;49.970;11.062;2022-10-31T15:55:38;11.80;;;3.20;;
40248;SDS011;25969;49.970;11.062;2022-10-31T16:06:00;11.25;;;3.65;;
40248;SDS011;25969;49.970;11.062;2022-10-31T16:16:04;13.88;;;4.20;;
40248;SDS011;25969;49.970;11.062;2022-10-31T16:26:14;11.88;;;4.65;;
40248;SDS011;25969;49.970;11.062;2022-10-31T16:46:27;14.52;;;4.28;;
40248;SDS011;25969;49.970;11.062;2022-10-31T16:56:30;12.00;;;3.77;;
40248;SDS011;25969;49.970;11.062;2022-10-31T17:06:32;21.38;;;11.25;;
40248;SDS011;25969;49.970;11.062;2022-10-31T17:16:33;10.87;;;4.73;;
40248;SDS011;25969;49.970;11.062;2022-10-31T17:26:33;13.40;;;4.43;;
40248;SDS011;25969;49.970;11.062;2022-10-31T17:36:34;10.30;;;4.50;;
40248;SDS011;25969;49.970;11.062;2022-10-31T17:46:35;18.47;;;9.20;;
40248;SDS011;25969;49.970;11.062;2022-10-31T17:56:36;11.47;;;6.30;;
40248;SDS011;25969;49.970;11.062;2022-10-31T18:06:37;13.20;;;6.77;;
40248;SDS011;25969;49.970;11.062;2022-10-31T18:16:38;11.00;;;4.73;;
40248;SDS011;25969;49.970;11.062;2022-10-31T18:26:38;9.80;;;4.17;;
40248;SDS011;25969;49.970;11.062;2022-10-31T18:36:39;9.10;;;4.23;;
40248;SDS011;25969;49.970;11.062;2022-10-31T18:46:40;12.27;;;5.00;;
40248;SDS011;25969;49.970;11.062;2022-10-31T18:56:41;12.07;;;4.43;;
40248;SDS011;25969;49.970;11.062;2022-10-31T19:06:43;20.38;;;6.35;;
40248;SDS011;25969;49.970;11.062;2022-10-31T19:16:43;10.63;;;3.83;;
40248;SDS011;25969;49.970;11.062;2022-10-31T19:26:44;8.57;;;3.70;;
40248;SDS011;25969;49.970;11.062;2022-10-31T19:36:46;11.75;;;3.20;;
40248;SDS011;25969;49.970;11.062;2022-10-31T19:46:46;10.80;;;3.17;;
40248;SDS011;25969;49.970;11.062;2022-10-31T19:56:47;8.63;;;2.97;;
40248;SDS011;25969;49.970;11.062;2022-10-31T20:06:48;11.57;;;3.83;;
40248;SDS011;25969;49.970;11.062;2022-10-31T20:16:49;9.20;;;3.47;;
40248;SDS011;25969;49.970;11.062;2022-10-31T20:26:50;13.00;;;4.50;;
40248;SDS011;25969;49.970;11.062;2022-10-31T20:36:51;13.00;;;3.97;;
40248;SDS011;25969;49.970;11.062;2022-10-31T20:46:52;13.30;;;4.20;;
40248;SDS011;25969;49.970;11.062;2022-10-31T20:56:52;19.00;;;4.40;;
40248;SDS011;25969;49.970;11.062;2022-10-31T21:06:53;10.43;;;4.37;;
40248;SDS011;25969;49.970;11.062;2022-10-31T21:16:54;15.93;;;4.20;;
40248;SDS011;25969;49.970;11.062;2022-10-31T21:26:54;11.07;;;4.60;;
40248;SDS011;25969;49.970;11.062;2022-10-31T21:36:55;14.87;;;6.20;;
40248;SDS011;25969;49.970;11.062;2022-10-31T21:46:56;14.60;;;4.97;;
40248;SDS011;25969;49.970;11.062;2022-10-31T21:56:57;19.60;;;4.70;;
40248;SDS011;25969;49.970;11.062;2022-10-31T22:06:59;12.65;;;4.38;;
40248;SDS011;25969;49.970;11.062;2022-10-31T22:17:00;10.87;;;4.53;;
40248;SDS011;25969;49.970;11.062;2022-10-31T22:27:00;12.60;;;5.20;;
40248;SDS011;25969;49.970;11.062;2022-10-31T22:37:01;13.30;;;5.03;;
40248;SDS011;25969;49.970;11.062;2022-10-31T22:47:02;11.40;;;4.73;;
40248;SDS011;25969;49.970;11.062;2022-10-31T22:57:03;15.63;;;5.60;;
